Time;durP1;ratioP1;P1;durP2;ratioP2;P2;SDS_P1;SDS_P2;PMS_P1;PMS_P2;Temp;Humidity;BMP_temperature;BMP_pressure;BME280_temperature;BME280_humidity;BME280_pressure;Samples;Min_cycle;Max_cycle;Signal;HPM_P1;HPM_P2
2022/12/20 00:02:13;;;;;;;8.80;1.43;;;;;;;;;;4999790;28;20186;-59
2022/12/20 00:04:39;;;;;;;16.27;2.20;;;;;;;;;;5006708;28;20190;-59
2022/12/20 00:07:05;;;;;;;10.63;1.83;;;;;;;;;;5012326;28;20171;-59
2022/12/20 00:09:31;;;;;;;5.87;0.83;;;;;;;;;;5011161;28;20269;-59
2022/12/20 00:11:57;;;;;;;4.17;1.40;;;;;;;;;;5012240;28;20178;-59
2022/12/20 00:14:23;;;;;;;4.47;1.00;;;;;;;;;;5012033;28;20703;-59
2022/12/20 00:16:49;;;;;;;4.63;0.70;;;;;;;;;;5012015;28;20210;-60
2022/12/20 00:19:16;;;;;;;4.83;0.93;;;;;;;;;;5012006;28;20177;-60
2022/12/20 00:21:42;;;;;;;4.70;0.50;;;;;;;;;;5012028;28;20166;-58
2022/12/20 00:24:08;;;;;;;6.73;1.00;;;;;;;;;;5011958;28;20169;-58
2022/12/20 00:26:34;;;;;;;4.67;0.80;;;12.80;99.90;;;;;;5012370;28;20248;-60
2022/12/20 00:29:01;;;;;;;7.10;0.93;;;;;;;;;;5011772;28;20189;-59
2022/12/20 00:31:28;;;;;;;6.63;0.97;;;;;;;;;;5011139;28;20201;-60
2022/12/20 00:33:55;;;;;;;5.47;0.83;;;12.60;99.90;;;;;;5011496;28;20273;-59
2022/12/20 00:36:22;;;;;;;13.80;1.10;;;12.80;99.90;;;;;;5011717;28;20249;-58
2022/12/20 00:38:50;;;;;;;5.50;0.80;;;12.80;99.90;;;;;;5011506;28;20185;-59
2022/12/20 00:41:17;;;;;;;4.93;0.90;;;;;;;;;;5011387;28;20248;-59
2022/12/20 00:43:43;;;;;;;5.87;0.80;;;12.50;99.90;;;;;;5011383;28;20221;-58
2022/12/20 00:46:11;;;;;;;3.70;0.97;;;12.50;99.90;;;;;;5011348;28;20182;-59
2022/12/20 00:48:37;;;;;;;2.03;0.63;;;;;;;;;;5009421;28;20305;-58
2022/12/20 00:51:05;;;;;;;5.00;0.60;;;12.50;99.90;;;;;;5010963;28;20182;-59
2022/12/20 00:53:31;;;;;;;4.13;0.90;;;;;;;;;;5010421;28;20218;-59
2022/12/20 00:55:58;;;;;;;8.37;1.17;;;12.60;99.90;;;;;;5011147;28;20637;-58
2022/12/20 00:58:24;;;;;;;4.10;0.80;;;;;;;;;;5004193;28;20191;-58
2022/12/20 01:00:50;;;;;;;4.73;0.67;;;;;;;;;;5006144;28;20190;-58
2022/12/20 01:03:16;;;;;;;3.93;1.00;;;;;;;;;;5003204;28;20175;-57
2022/12/20 01:05:53;;;;;;;1.80;0.70;;;12.30;99.90;;;;;;5007541;28;20181;-58
2022/12/20 01:08:20;;;;;;;2.83;0.97;;;;;;;;;;5011207;28;20174;-57
2022/12/20 01:10:46;;;;;;;3.00;1.13;;;;;;;;;;5011098;28;20174;-57
2022/12/20 01:13:12;;;;;;;4.63;1.80;;;11.80;99.90;;;;;;5011384;28;20204;-58
2022/12/20 01:15:38;;;;;;;7.87;2.40;;;;;;;;;;5011278;28;20241;-57
2022/12/20 01:18:04;;;;;;;0.97;0.47;;;;;;;;;;5011104;28;20170;-57
2022/12/20 01:20:30;;;;;;;1.17;0.37;;;;;;;;;;5011179;28;20637;-57
2022/12/20 01:22:56;;;;;;;1.27;0.47;;;;;;;;;;5011172;28;20206;-58
2022/12/20 01:25:22;;;;;;;1.13;0.80;;;12.00;99.90;;;;;;5011185;28;20671;-57
2022/12/20 01:27:48;;;;;;;1.43;0.80;;;;;;;;;;5011114;28;20254;-57
2022/12/20 01:30:14;;;;;;;0.63;0.50;;;;;;;;;;5010952;28;20270;-59
2022/12/20 01:32:40;;;;;;;0.63;0.40;;;;;;;;;;5011087;28;20175;-58
2022/12/20 01:35:06;;;;;;;0.33;0.20;;;;;;;;;;5011062;28;20323;-58
2022/12/20 01:37:32;;;;;;;0.27;0.20;;;;;;;;;;5010968;28;20179;-57
2022/12/20 01:39:58;;;;;;;0.73;0.60;;;;;;;;;;5011004;28;20186;-57
2022/12/20 01:42:24;;;;;;;0.77;0.40;;;;;;;;;;5006978;28;20167;-58
2022/12/20 01:44:55;;;;;;;1.13;0.40;;;11.60;99.90;;;;;;5010606;28;20202;-58
2022/12/20 01:47:22;;;;;;;3.30;0.50;;;;;;;;;;5010404;28;20175;-57
2022/12/20 01:49:49;;;;;;;0.87;0.50;;;;;;;;;;5010628;28;20667;-59
2022/12/20 01:52:21;;;;;;;1.93;0.60;;;11.40;99.90;;;;;;5010290;28;20189;-58
2022/12/20 01:55:15;;;;;;;0.60;0.30;;;11.30;99.90;;;;;;5010452;28;20221;-58
2022/12/20 01:58:03;;;;;;;0.63;0.30;;;11.20;99.90;;;;;;5002352;28;20222;-58
2022/12/20 02:00:29;;;;;;;3.80;0.30;;;;;;;;;;5006735;28;20654;-58
2022/12/20 02:02:59;;;;;;;1.10;0.40;;;11.10;99.90;;;;;;5005415;28;20649;-56
2022/12/20 02:05:25;;;;;;;1.13;0.50;;;;;;;;;;5016080;28;20607;-59
2022/12/20 02:07:54;;;;;;;3.57;0.70;;;10.90;99.90;;;;;;5010746;28;20175;-58
2022/12/20 02:10:26;;;;;;;1.27;0.50;;;11.10;99.90;;;;;;5010532;28;20626;-58
2022/12/20 02:13:00;;;;;;;2.73;0.60;;;10.90;99.90;;;;;;5010423;28;20274;-58
2022/12/20 02:15:53;;;;;;;1.57;0.60;;;10.90;99.90;;;;;;5011189;28;20214;-58
2022/12/20 02:18:43;;;;;;;4.70;1.10;;;10.90;99.90;;;;;;5013960;28;20682;-60
2022/12/20 02:21:15;;;;;;;0.97;0.57;;;;;;;;;;5013681;28;20190;-58
2022/12/20 02:24:13;;;;;;;2.23;0.80;;;10.90;99.90;;;;;;5013899;28;20170;-58
2022/12/20 02:27:13;;;;;;;2.70;0.60;;;10.80;99.90;;;;;;5013304;28;20217;-57
2022/12/20 02:29:39;;;;;;;2.67;1.00;;;;;;;;;;5010633;28;20182;-58
2022/12/20 02:32:21;;;;;;;2.00;0.67;;;10.70;99.90;;;;;;5013435;28;20181;-58
2022/12/20 02:34:47;;;;;;;1.03;0.50;;;10.50;99.90;;;;;;5013639;28;20214;-57
2022/12/20 02:37:13;;;;;;;3.53;0.70;;;;;;;;;;5013507;28;20177;-57
2022/12/20 02:39:41;;;;;;;2.60;0.70;;;10.70;99.90;;;;;;5013851;28;20646;-58
2022/12/20 02:42:13;;;;;;;1.87;0.60;;;10.70;99.90;;;;;;5014031;28;20217;-58
2022/12/20 02:47:35;;;;;;;0.40;0.20;;;10.70;99.90;;;;;;5000114;28;20208;-58
2022/12/20 02:50:03;;;;;;;0.87;0.40;;;10.70;99.90;;;;;;5013256;28;20225;-58
2022/12/20 02:52:30;;;;;;;1.33;0.40;;;10.50;99.90;;;;;;5013133;28;20178;-58
2022/12/20 02:54:57;;;;;;;1.00;0.40;;;;;;;;;;4993128;28;20219;-59
2022/12/20 02:57:58;;;;;;;2.30;0.50;;;10.50;99.90;;;;;;4999267;28;20684;-59
2022/12/20 03:00:24;;;;;;;2.47;0.40;;;;;;;;;;5009792;28;20178;-59
2022/12/20 03:05:42;;;;;;;3.80;0.53;;;10.40;99.90;;;;;;5005147;28;20186;-59
2022/12/20 03:08:09;;;;;;;3.80;0.80;;;;;;;;;;5000407;28;20178;-60
2022/12/20 03:10:35;;;;;;;0.93;0.40;;;;;;;;;;5008164;28;20242;-59
2022/12/20 03:13:01;;;;;;;5.50;1.37;;;;;;;;;;5006071;28;20182;-59
2022/12/20 03:15:27;;;;;;;2.73;0.70;;;;;;;;;;5012852;28;20349;-59
2022/12/20 03:17:53;;;;;;;6.17;0.63;;;;;;;;;;5012698;28;20256;-59
2022/12/20 03:20:19;;;;;;;2.90;0.43;;;;;;;;;;5012514;28;20592;-58
2022/12/20 03:22:45;;;;;;;2.27;0.60;;;;;;;;;;5008619;28;20641;-58
2022/12/20 03:25:11;;;;;;;1.87;0.70;;;;;;;;;;5009008;28;20684;-59
2022/12/20 03:27:37;;;;;;;1.40;0.53;;;;;;;;;;5011322;28;20434;-59
2022/12/20 03:30:04;;;;;;;4.20;0.57;;;9.80;99.90;;;;;;5012245;28;20190;-58
2022/12/20 03:32:30;;;;;;;3.60;0.77;;;;;;;;;;5012444;28;20262;-58
2022/12/20 03:34:56;;;;;;;2.60;0.67;;;;;;;;;;5012297;28;20620;-58
2022/12/20 03:37:22;;;;;;;3.03;0.40;;;;;;;;;;5012518;28;20641;-59
2022/12/20 03:39:48;;;;;;;2.70;0.40;;;;;;;;;;5011546;28;20182;-58
2022/12/20 03:42:14;;;;;;;0.60;0.40;;;;;;;;;;5012557;28;20277;-58
2022/12/20 03:44:41;;;;;;;1.50;0.60;;;;;;;;;;5012722;28;20684;-58
2022/12/20 03:47:07;;;;;;;5.37;0.33;;;;;;;;;;5012190;28;20205;-59
2022/12/20 03:49:33;;;;;;;1.10;0.20;;;;;;;;;;5011887;28;20222;-59
2022/12/20 03:51:59;;;;;;;0.57;0.23;;;;;;;;;;5016299;28;20179;-60
2022/12/20 03:54:25;;;;;;;5.50;0.50;;;;;;;;;;5005083;28;20272;-59
2022/12/20 03:56:51;;;;;;;1.10;0.40;;;;;;;;;;5011177;28;20178;-59
2022/12/20 03:59:18;;;;;;;0.90;0.30;;;;;;;;;;5010994;28;20190;-59
2022/12/20 04:01:44;;;;;;;1.97;0.47;;;;;;;;;;5002795;28;20225;-59
2022/12/20 04:04:11;;;;;;;6.27;0.60;;;;;;;;;;5010495;28;20292;-60
2022/12/20 04:06:37;;;;;;;3.07;0.70;;;;;;;;;;5011696;28;20229;-59
2022/12/20 04:09:03;;;;;;;1.60;0.77;;;;;;;;;;5011733;28;20177;-59
2022/12/20 04:11:29;;;;;;;3.20;0.53;;;;;;;;;;5011309;28;20171;-59
2022/12/20 04:13:55;;;;;;;4.20;0.83;;;;;;;;;;5011667;28;20617;-58
2022/12/20 04:16:26;;;;;;;3.13;0.80;;;;;;;;;;5011736;28;20229;-59
2022/12/20 04:18:52;;;;;;;8.23;1.00;;;;;;;;;;5011883;28;20668;-59
2022/12/20 04:21:28;;;;;;;2.67;0.70;;;9.30;99.90;;;;;;5012004;28;20171;-59
2022/12/20 04:23:55;;;;;;;8.53;1.10;;;;;;;;;;5011983;28;20189;-60
2022/12/20 04:26:21;;;;;;;10.53;0.83;;;;;;;;;;5011954;28;20170;-60
2022/12/20 04:28:47;;;;;;;5.47;1.03;;;;;;;;;;5011828;28;20198;-60
2022/12/20 04:31:13;;;;;;;2.60;0.90;;;;;;;;;;5011742;28;20673;-60
2022/12/20 04:33:39;;;;;;;5.40;1.10;;;9.40;99.90;;;;;;5011464;28;20198;-60
2022/12/20 04:36:06;;;;;;;4.50;0.70;;;;;;;;;;5011690;28;20190;-60
2022/12/20 04:38:32;;;;;;;11.73;1.40;;;;;;;;;;5011703;28;20601;-60
2022/12/20 04:40:58;;;;;;;11.83;1.70;;;;;;;;;;5011657;28;20175;-59
2022/12/20 04:43:24;;;;;;;7.10;1.20;;;9.50;99.90;;;;;;5011586;28;20178;-60
2022/12/20 04:45:52;;;;;;;9.00;1.10;;;9.10;99.90;;;;;;5011860;28;20185;-60
2022/12/20 04:48:18;;;;;;;3.87;1.30;;;;;;;;;;5008755;28;20669;-59
2022/12/20 04:50:48;;;;;;;5.97;1.30;;;9.10;99.90;;;;;;5001076;28;20185;-60
2022/12/20 04:55:58;;;;;;;2.83;1.10;;;;;;;;;;4992701;28;20190;-60
2022/12/20 04:58:24;;;;;;;5.03;0.90;;;;;;;;;;5007176;28;20634;-59
2022/12/20 05:00:53;;;;;;;5.93;0.60;;;;;;;;;;5010889;28;20222;-57
2022/12/20 05:03:20;;;;;;;3.40;0.77;;;;;;;;;;5010524;28;20186;-58
2022/12/20 05:05:46;;;;;;;4.23;0.80;;;;;;;;;;5011104;28;20174;-59
2022/12/20 05:08:12;;;;;;;5.13;1.07;;;;;;;;;;5008688;28;20178;-59
2022/12/20 05:10:39;;;;;;;10.93;1.47;;;;;;;;;;5011122;28;20174;-58
2022/12/20 05:13:05;;;;;;;7.00;1.10;;;;;;;;;;5011141;28;20265;-59
2022/12/20 05:15:31;;;;;;;4.80;1.20;;;;;;;;;;5010592;28;20222;-59
2022/12/20 05:17:58;;;;;;;14.23;1.43;;;9.20;99.90;;;;;;5009570;28;20182;-59
2022/12/20 05:20:29;;;;;;;12.83;1.90;;;9.20;99.90;;;;;;5010208;28;20366;-59
2022/12/20 05:28:28;;;;;;;29.07;2.00;;;;;;;;;;5009582;28;20249;-60
2022/12/20 05:30:54;;;;;;;21.53;2.67;;;;;;;;;;5010235;28;20228;-58
2022/12/20 05:33:20;;;;;;;22.83;2.37;;;;;;;;;;5008993;28;20183;-58
2022/12/20 05:35:46;;;;;;;28.00;2.43;;;;;;;;;;5010827;28;20185;-58
2022/12/20 05:38:12;;;;;;;23.90;2.43;;;;;;;;;;5010740;28;20174;-59
2022/12/20 05:40:39;;;;;;;25.83;2.60;;;9.40;99.90;;;;;;5010959;28;20213;-59
2022/12/20 05:43:05;;;;;;;14.20;2.53;;;8.30;99.90;;;;;;5010663;28;20214;-59
2022/12/20 05:45:31;;;;;;;25.83;2.70;;;;;;;;;;5010744;28;20187;-58
2022/12/20 05:47:57;;;;;;;21.70;2.20;;;;;;;;;;5010760;28;20205;-60
2022/12/20 05:50:23;;;;;;;18.07;1.73;;;;;;;;;;5011594;28;20178;-58
2022/12/20 05:52:49;;;;;;;28.77;2.47;;;9.10;99.90;;;;;;5014568;28;20660;-58
2022/12/20 05:55:15;;;;;;;26.90;2.50;;;9.30;99.90;;;;;;5014426;28;20210;-59
2022/12/20 05:57:41;;;;;;;67.20;3.50;;;;;;;;;;5014087;28;20708;-59
2022/12/20 06:00:07;;;;;;;28.93;2.27;;;9.00;99.90;;;;;;5014401;28;20228;-59
2022/12/20 06:02:33;;;;;;;31.03;2.60;;;;;;;;;;5014281;28;20182;-59
2022/12/20 06:04:59;;;;;;;19.03;1.63;;;9.30;99.90;;;;;;5014268;28;20178;-59
2022/12/20 06:07:27;;;;;;;22.90;1.90;;;;;;;;;;5013875;28;20193;-59
2022/12/20 06:09:54;;;;;;;21.40;2.13;;;;;;;;;;5014191;28;20183;-59
2022/12/20 06:12:20;;;;;;;18.63;2.10;;;;;;;;;;5014009;28;20654;-59
2022/12/20 06:14:46;;;;;;;19.63;2.17;;;;;;;;;;5014257;28;20218;-59
2022/12/20 06:17:12;;;;;;;31.20;2.13;;;;;;;;;;5013931;28;20202;-59
2022/12/20 06:19:41;;;;;;;26.27;2.10;;;;;;;;;;5014270;28;20605;-59
2022/12/20 06:22:10;;;;;;;21.93;1.87;;;9.00;99.90;;;;;;5013585;28;20209;-59
2022/12/20 06:24:38;;;;;;;20.90;1.90;;;;;;;;;;5012791;28;20186;-59
2022/12/20 06:27:05;;;;;;;21.83;1.77;;;;;;;;;;5011080;28;20202;-59
2022/12/20 06:29:32;;;;;;;18.07;1.97;;;;;;;;;;5013218;28;20583;-59
2022/12/20 06:31:58;;;;;;;15.97;1.60;;;;;;;;;;5012805;28;20572;-59
2022/12/20 06:34:24;;;;;;;14.10;1.97;;;;;;;;;;5011129;28;20218;-59
2022/12/20 06:36:50;;;;;;;21.40;1.87;;;;;;;;;;5013312;28;20328;-59
2022/12/20 06:39:16;;;;;;;18.23;1.87;;;;;;;;;;5012836;28;20656;-60
2022/12/20 06:41:42;;;;;;;16.57;1.50;;;;;;;;;;5012776;28;20198;-59
2022/12/20 06:44:08;;;;;;;16.63;2.47;;;;;;;;;;5012166;28;20191;-59
2022/12/20 06:46:34;;;;;;;15.63;1.87;;;;;;;;;;5010310;28;20191;-59
2022/12/20 06:49:00;;;;;;;13.83;1.90;;;;;;;;;;4994020;28;20219;-59
2022/12/20 06:51:26;;;;;;;22.50;2.10;;;;;;;;;;5005577;28;20269;-59
2022/12/20 06:53:53;;;;;;;17.53;1.77;;;;;;;;;;5013301;28;20221;-59
2022/12/20 06:56:19;;;;;;;17.17;1.53;;;;;;;;;;5013494;28;20178;-58
2022/12/20 06:58:46;;;;;;;17.03;1.63;;;;;;;;;;5012811;28;20194;-58
2022/12/20 07:01:12;;;;;;;13.80;1.43;;;;;;;;;;5012810;28;20191;-59
2022/12/20 07:03:38;;;;;;;27.07;2.53;;;;;;;;;;5011776;28;20186;-59
2022/12/20 07:06:04;;;;;;;12.00;1.30;;;;;;;;;;5013352;28;20678;-60
2022/12/20 07:08:30;;;;;;;13.50;1.30;;;8.70;99.90;;;;;;5009803;28;20183;-59
2022/12/20 07:11:02;;;;;;;11.07;1.40;;;;;;;;;;5003967;28;20171;-59
2022/12/20 07:13:28;;;;;;;11.97;1.60;;;;;;;;;;5009773;28;20194;-59
2022/12/20 07:15:58;;;;;;;10.10;1.57;;;;;;;;;;5012518;28;20186;-58
2022/12/20 07:18:24;;;;;;;27.83;2.07;;;;;;;;;;5013078;28;20237;-59
2022/12/20 07:20:50;;;;;;;13.70;1.73;;;;;;;;;;5005877;28;20206;-58
2022/12/20 07:23:17;;;;;;;19.63;1.77;;;;;;;;;;5012127;28;20199;-58
2022/12/20 07:25:43;;;;;;;18.63;1.70;;;;;;;;;;5007290;28;20240;-59
2022/12/20 07:28:09;;;;;;;14.87;1.67;;;;;;;;;;5011667;28;20186;-59
2022/12/20 07:30:36;;;;;;;11.13;1.20;;;;;;;;;;5012279;28;20181;-58
2022/12/20 07:33:02;;;;;;;13.17;1.57;;;;;;;;;;5012659;28;20181;-58
2022/12/20 07:35:28;;;;;;;11.40;1.40;;;8.10;99.90;;;;;;5012337;28;20214;-58
2022/12/20 07:37:54;;;;;;;7.30;1.30;;;;;;;;;;5012075;28;20193;-59
2022/12/20 07:40:20;;;;;;;13.93;1.63;;;;;;;;;;5012572;28;20175;-59
2022/12/20 07:42:46;;;;;;;12.90;1.80;;;;;;;;;;5012214;28;20252;-59
2022/12/20 07:45:12;;;;;;;15.23;1.97;;;;;;;;;;5011754;28;20182;-58
2022/12/20 07:47:38;;;;;;;19.73;2.23;;;;;;;;;;5011471;28;20190;-59
2022/12/20 07:50:04;;;;;;;12.00;1.60;;;8.00;99.90;;;;;;5011818;28;20704;-59
2022/12/20 07:52:33;;;;;;;13.33;1.33;;;8.10;99.90;;;;;;5012434;28;20174;-59
2022/12/20 07:55:01;;;;;;;24.20;1.80;;;;;;;;;;5011906;28;20269;-59
2022/12/20 07:57:31;;;;;;;16.50;2.30;;;8.00;99.90;;;;;;5011674;28;20191;-59
2022/12/20 07:59:58;;;;;;;14.23;1.53;;;;;;;;;;5011157;28;20669;-60
2022/12/20 08:02:39;;;;;;;15.30;1.83;;;8.00;99.90;;;;;;5011227;28;20578;-58
2022/12/20 08:05:07;;;;;;;20.63;1.97;;;8.00;99.90;;;;;;5011494;28;20186;-58
2022/12/20 08:07:33;;;;;;;10.40;1.30;;;7.80;99.90;;;;;;5011676;28;20174;-58
2022/12/20 08:10:00;;;;;;;19.67;1.73;;;;;;;;;;5012083;28;20175;-58
2022/12/20 08:12:28;;;;;;;18.23;1.70;;;8.20;99.90;;;;;;5011798;28;20202;-58
2022/12/20 08:14:55;;;;;;;19.20;1.93;;;;;;;;;;5010917;28;20225;-58
2022/12/20 08:17:21;;;;;;;22.33;2.07;;;7.80;99.90;;;;;;5009907;28;20375;-58
2022/12/20 08:19:50;;;;;;;24.03;1.90;;;;;;;;;;5010807;28;20175;-58
2022/12/20 08:22:16;;;;;;;15.67;2.07;;;;;;;;;;5008827;28;20217;-58
2022/12/20 08:24:42;;;;;;;17.40;1.77;;;;;;;;;;5010267;28;20183;-58
2022/12/20 08:27:09;;;;;;;18.00;2.10;;;;;;;;;;5011630;28;20170;-58
2022/12/20 08:29:34;;;;;;;14.90;2.13;;;8.30;99.90;;;;;;5011011;28;20185;-58
2022/12/20 08:32:00;;;;;;;26.90;1.97;;;;;;;;;;5011120;28;20171;-58
2022/12/20 08:34:26;;;;;;;14.33;1.67;;;;;;;;;;5011048;28;20301;-57
2022/12/20 08:36:53;;;;;;;20.80;2.20;;;;;;;;;;5010849;28;20170;-57
2022/12/20 08:39:19;;;;;;;16.47;2.23;;;;;;;;;;5011615;28;20178;-57
2022/12/20 08:41:44;;;;;;;31.90;2.23;;;7.80;99.90;;;;;;5011443;28;20182;-57
2022/12/20 08:44:10;;;;;;;16.60;1.60;;;;;;;;;;5010660;28;20248;-57
2022/12/20 08:46:36;;;;;;;22.33;2.40;;;8.10;99.90;;;;;;5011612;28;20183;-57
2022/12/20 08:49:03;;;;;;;19.93;2.57;;;;;;;;;;5011362;28;20280;-57
2022/12/20 08:51:29;;;;;;;17.97;2.07;;;;;;;;;;5010574;28;20235;-58
2022/12/20 08:53:55;;;;;;;18.17;2.73;;;;;;;;;;5010847;28;20187;-58
2022/12/20 08:56:22;;;;;;;15.77;2.00;;;;;;;;;;5010987;28;20194;-58
2022/12/20 08:58:48;;;;;;;16.73;2.20;;;8.10;99.90;;;;;;5011585;28;20178;-57
2022/12/20 09:01:16;;;;;;;16.77;2.47;;;8.40;99.90;;;;;;5011349;28;20667;-57
2022/12/20 09:03:42;;;;;;;28.50;2.67;;;;;;;;;;5011230;28;20206;-58
2022/12/20 09:06:11;;;;;;;21.57;2.40;;;8.70;99.90;;;;;;5010677;28;20559;-57
2022/12/20 09:08:37;;;;;;;21.77;2.17;;;;;;;;;;5011409;28;20205;-58
2022/12/20 09:11:05;;;;;;;15.40;2.00;;;;;;;;;;5010747;28;20178;-58
2022/12/20 09:13:31;;;;;;;11.37;1.63;;;;;;;;;;5004618;28;20206;-58
2022/12/20 09:16:00;;;;;;;18.40;2.33;;;;;;;;;;5010546;28;20167;-57
2022/12/20 09:18:26;;;;;;;15.73;2.47;;;;;;;;;;5006724;28;20182;-58
2022/12/20 09:20:51;;;;;;;18.93;2.20;;;9.60;99.90;;;;;;5010853;28;20175;-58
2022/12/20 09:23:17;;;;;;;21.27;2.33;;;9.80;99.90;;;;;;5011179;28;20696;-59
2022/12/20 09:25:43;;;;;;;16.27;2.00;;;9.90;99.90;;;;;;5011952;28;20210;-61
2022/12/20 09:28:09;;;;;;;17.47;2.97;;;10.00;99.90;;;;;;5014726;28;20178;-58
2022/12/20 09:30:34;;;;;;;12.83;2.27;;;9.90;99.90;;;;;;5015046;28;20237;-57
2022/12/20 09:33:00;;;;;;;34.00;3.80;;;9.50;99.90;;;;;;5014856;28;20171;-58
2022/12/20 09:35:26;;;;;;;30.20;2.77;;;9.60;99.90;;;;;;5015067;28;20218;-58
2022/12/20 09:37:51;;;;;;;9.70;1.93;;;9.10;99.90;;;;;;5015174;28;20171;-57
2022/12/20 09:40:29;;;;;;;19.87;3.20;;;9.60;99.90;;;;;;5014146;28;20182;-57
2022/12/20 09:42:55;;;;;;;27.80;2.87;;;;;;;;;;5014893;28;20179;-58
2022/12/20 09:45:30;;;;;;;24.33;2.30;;;9.70;99.90;;;;;;5013911;28;20241;-57
2022/12/20 09:47:56;;;;;;;20.70;2.53;;;;;;;;;;5014764;28;20282;-58
2022/12/20 09:50:37;;;;;;;19.83;2.63;;;9.90;99.90;;;;;;5014636;28;20205;-58
2022/12/20 09:53:30;;;;;;;25.80;3.20;;;10.20;99.90;;;;;;5013105;28;20174;-59
2022/12/20 09:56:04;;;;;;;16.93;2.33;;;10.30;99.90;;;;;;4995022;28;20658;-58
2022/12/20 09:58:54;;;;;;;22.97;2.60;;;10.30;99.90;;;;;;5006424;28;20182;-58
2022/12/20 10:01:21;;;;;;;33.23;3.30;;;;;;;;;;5013427;28;20210;-57
2022/12/20 10:03:47;;;;;;;20.13;2.50;;;;;;;;;;5013419;28;20240;-58
2022/12/20 10:06:16;;;;;;;40.50;4.17;;;;;;;;;;5011300;28;20261;-58
2022/12/20 10:08:42;;;;;;;27.27;2.90;;;;;;;;;;5008350;28;20704;-57
2022/12/20 10:11:28;;;;;;;31.67;3.20;;;;;;;;;;5012012;28;20179;-57
2022/12/20 10:14:25;;;;;;;28.93;3.83;;;10.70;99.90;;;;;;5008316;28;20237;-57
2022/12/20 10:17:07;;;;;;;12.93;1.87;;;10.90;99.90;;;;;;5013728;28;20174;-57
2022/12/20 10:19:53;;;;;;;29.43;3.13;;;;;;;;;;5012045;28;20190;-58
2022/12/20 10:22:22;;;;;;;24.50;2.90;;;;;;;;;;4994808;28;20213;-58
2022/12/20 10:24:58;;;;;;;23.77;2.43;;;11.40;99.90;;;;;;4994478;28;20175;-58
2022/12/20 10:27:25;;;;;;;21.93;2.83;;;;;;;;;;4994405;28;20182;-58
2022/12/20 10:29:51;;;;;;;20.97;2.60;;;;;;;;;;5002197;28;20225;-56
2022/12/20 10:32:19;;;;;;;20.80;2.40;;;;;;;;;;5014003;28;20673;-57
2022/12/20 10:35:17;;;;;;;14.77;2.33;;;11.60;99.90;;;;;;5013330;28;20313;-57
2022/12/20 10:37:57;;;;;;;23.83;2.97;;;;;;;;;;5012243;28;20236;-58
2022/12/20 10:40:27;;;;;;;20.23;2.20;;;;;;;;;;5013195;28;20596;-58
2022/12/20 10:42:54;;;;;;;17.80;2.93;;;;;;;;;;5013939;28;20202;-58
2022/12/20 10:45:20;;;;;;;21.03;2.73;;;;;;;;;;5013747;28;20187;-57
2022/12/20 10:47:48;;;;;;;26.63;3.00;;;;;;;;;;5012736;28;20179;-57
2022/12/20 10:50:22;;;;;;;22.10;2.80;;;12.70;99.90;;;;;;4993676;28;20721;-57
2022/12/20 10:53:07;;;;;;;14.93;1.87;;;;;;;;;;4993857;28;20170;-57
2022/12/20 10:55:42;;;;;;;19.63;2.60;;;;;;;;;;5012441;28;20249;-57
2022/12/20 10:58:16;;;;;;;15.93;2.43;;;;;;;;;;5013361;28;20170;-57
2022/12/20 11:00:43;;;;;;;18.10;2.50;;;;;;;;;;5013569;28;20173;-56
2022/12/20 11:03:09;;;;;;;6.63;1.33;;;;;;;;;;5011925;28;20208;-56
2022/12/20 11:05:35;;;;;;;20.00;2.50;;;;;;;;;;5007170;28;20191;-56
2022/12/20 11:08:13;;;;;;;22.47;3.50;;;;;;;;;;5013319;28;20209;-56
2022/12/20 11:10:39;;;;;;;19.00;2.63;;;;;;;;;;5006199;28;20249;-56
2022/12/20 11:13:05;;;;;;;21.17;2.80;;;;;;;;;;5007597;28;20707;-56
2022/12/20 11:15:33;;;;;;;22.67;2.77;;;;;;;;;;5012141;28;20237;-56
2022/12/20 11:18:12;;;;;;;20.60;2.67;;;14.00;99.90;;;;;;4993520;28;20179;-57
2022/12/20 11:20:38;;;;;;;20.13;2.90;;;;;;;;;;4993271;28;20182;-56
2022/12/20 11:23:31;;;;;;;24.97;3.13;;;14.00;99.90;;;;;;4993174;28;20175;-56
2022/12/20 11:26:15;;;;;;;23.67;3.30;;;14.20;99.90;;;;;;4993265;28;20638;-57
2022/12/20 11:28:47;;;;;;;11.67;2.00;;;;;;;;;;4993372;28;20266;-57
2022/12/20 11:31:26;;;;;;;23.13;2.55;;;;;;;;;;4993207;28;20175;-57
2022/12/20 11:33:52;;;;;;;27.83;3.00;;;;;;;;;;4993325;28;20206;-55
2022/12/20 11:36:29;;;;;;;30.92;3.83;;;;;;;;;;4993265;28;20178;-55
2022/12/20 11:39:04;;;;;;;15.85;2.67;;;;;;;;;;4993073;28;20641;-56
2022/12/20 11:41:46;;;;;;;23.85;3.30;;;15.70;99.90;;;;;;4993190;28;20534;-56
2022/12/20 11:44:12;;;;;;;20.88;2.95;;;;;;;;;;4993352;28;20286;-55
2022/12/20 11:46:41;;;;;;;12.52;2.95;;;;;;;;;;4993112;28;20176;-56
2022/12/20 11:49:17;;;;;;;21.92;3.03;;;;;;;;;;4992176;28;20223;-56
2022/12/20 11:51:52;;;;;;;18.45;3.10;;;20.00;99.90;;;;;;4992967;28;20244;-56
2022/12/20 11:54:24;;;;;;;21.15;3.70;;;;;;;;;;4992795;28;20245;-56
2022/12/20 11:56:55;;;;;;;22.15;4.13;;;20.80;99.90;;;;;;4992897;28;20182;-56
2022/12/20 11:59:36;;;;;;;25.98;3.33;;;21.50;99.90;;;;;;4992892;28;20293;-56
2022/12/20 12:02:05;;;;;;;18.13;3.20;;;;;;;;;;4985037;28;20210;-56
2022/12/20 12:04:34;;;;;;;22.67;3.20;;;;;;;;;;4992543;28;20188;-56
2022/12/20 12:07:07;;;;;;;15.60;3.28;;;;;;;;;;4997062;28;20229;-56
2022/12/20 12:09:39;;;;;;;21.45;3.30;;;;;;;;;;5010770;28;20183;-56
2022/12/20 12:12:16;;;;;;;22.15;3.50;;;;;;;;;;5011394;28;20179;-56
2022/12/20 12:14:52;;;;;;;17.38;3.67;;;14.90;99.90;;;;;;5011418;28;20198;-56
2022/12/20 12:17:35;;;;;;;27.20;3.85;;;15.20;99.90;;;;;;5011411;28;20178;-56
2022/12/20 12:20:32;;;;;;;23.45;3.47;;;17.30;99.90;;;;;;5011596;28;20174;-56
2022/12/20 12:23:02;;;;;;;18.70;3.60;;;;;;;;;;4995740;28;20284;-56
2022/12/20 12:25:28;;;;;;;22.67;3.83;;;;;;;;;;5011686;28;20206;-56
2022/12/20 12:27:54;;;;;;;20.20;2.80;;;;;;;;;;5011681;28;20209;-56
2022/12/20 12:30:20;;;;;;;17.60;3.40;;;;;;;;;;5011477;28;20182;-56
2022/12/20 12:32:56;;;;;;;16.50;3.08;;;20.60;99.90;;;;;;5011706;28;20170;-56
2022/12/20 12:35:22;;;;;;;25.77;4.10;;;;;;;;;;5011477;28;20754;-56
2022/12/20 12:38:05;;;;;;;21.30;4.03;;;22.60;99.90;;;;;;5011129;28;20201;-56
2022/12/20 12:40:52;;;;;;;23.60;4.03;;;22.40;99.90;;;;;;5004830;28;20269;-55
2022/12/20 12:43:18;;;;;;;18.08;3.30;;;;;;;;;;5011224;28;20186;-56
2022/12/20 12:46:07;;;;;;;17.92;4.30;;;21.00;99.90;;;;;;5011442;28;20249;-55
2022/12/20 12:48:38;;;;;;;22.13;4.32;;;;;;;;;;5010966;28;20218;-55
2022/12/20 12:51:04;;;;;;;21.17;3.65;;;;;;;;;;5011552;28;20202;-55
2022/12/20 12:53:43;;;;;;;20.55;4.38;;;22.90;99.90;;;;;;5011311;28;20178;-55
2022/12/20 12:56:27;;;;;;;16.17;3.97;;;22.70;99.90;;;;;;5003488;28;20225;-55
2022/12/20 12:59:05;;;;;;;19.42;3.70;;;21.60;99.90;;;;;;5011418;28;20174;-55
2022/12/20 13:01:54;;;;;;;12.48;3.13;;;19.30;99.90;;;;;;5008177;28;20186;-55
2022/12/20 13:04:20;;;;;;;26.88;4.28;;;17.00;99.90;;;;;;4991807;28;20175;-55
2022/12/20 13:07:23;;;;;;;23.65;4.18;;;17.10;99.90;;;;;;4991666;28;20293;-56
2022/12/20 13:09:48;;;;;;;29.42;3.65;;;15.30;99.90;;;;;;5008757;28;20178;-56
2022/12/20 13:12:36;;;;;;;31.15;4.47;;;14.50;99.90;;;;;;5026154;28;20196;-57
2022/12/20 13:15:20;;;;;;;24.73;3.80;;;13.60;99.90;;;;;;5010394;28;20206;-56
2022/12/20 13:18:00;;;;;;;23.17;3.83;;;13.50;99.90;;;;;;5011087;28;20178;-56
2022/12/20 13:20:33;;;;;;;22.63;3.72;;;13.30;99.90;;;;;;5011098;28;20170;-56
2022/12/20 13:23:16;;;;;;;29.08;4.03;;;12.30;99.90;;;;;;5009546;28;20177;-56
2022/12/20 13:25:48;;;;;;;26.08;3.92;;;13.20;99.90;;;;;;5011054;28;20181;-56
2022/12/20 13:28:22;;;;;;;22.33;4.80;;;14.30;99.90;;;;;;5005788;28;20183;-56
2022/12/20 13:31:11;;;;;;;20.88;4.32;;;15.00;99.90;;;;;;5005181;28;20684;-56
2022/12/20 13:33:43;;;;;;;27.50;4.53;;;14.30;99.90;;;;;;5006506;28;20201;-56
2022/12/20 13:36:08;;;;;;;23.88;4.15;;;13.70;99.90;;;;;;5010142;28;20253;-56
2022/12/20 13:38:36;;;;;;;20.10;3.53;;;13.00;99.90;;;;;;5010830;28;20622;-57
2022/12/20 13:41:31;;;;;;;28.57;3.87;;;13.00;99.90;;;;;;5010885;28;20174;-56
2022/12/20 13:44:01;;;;;;;24.20;3.67;;;12.70;99.90;;;;;;5010496;28;20178;-56
2022/12/20 13:46:54;;;;;;;36.10;3.83;;;12.60;99.90;;;;;;5010696;28;20170;-56
2022/12/20 13:49:39;;;;;;;30.87;3.80;;;12.80;99.90;;;;;;5009255;28;20222;-56
2022/12/20 13:52:15;;;;;;;28.80;4.57;;;12.90;99.90;;;;;;4993255;28;20178;-56
2022/12/20 13:54:47;;;;;;;30.17;4.13;;;12.90;99.90;;;;;;5002574;28;20221;-56
2022/12/20 13:57:21;;;;;;;27.43;3.03;;;12.80;99.90;;;;;;5010410;28;20199;-56
2022/12/20 13:59:51;;;;;;;29.40;4.30;;;12.80;99.90;;;;;;5006673;28;20179;-56
2022/12/20 14:02:25;;;;;;;26.33;4.13;;;12.70;99.90;;;;;;5009425;28;20526;-56
2022/12/20 14:05:09;;;;;;;20.97;3.17;;;12.40;99.90;;;;;;5010834;28;20182;-56
2022/12/20 14:07:35;;;;;;;25.60;3.63;;;;;;;;;;5010194;28;20182;-56
2022/12/20 14:10:03;;;;;;;25.47;4.07;;;12.00;99.90;;;;;;5009731;28;20174;-57
2022/12/20 14:12:30;;;;;;;27.53;3.27;;;;;;;;;;5012557;28;20267;-57
2022/12/20 14:14:56;;;;;;;30.87;3.57;;;;;;;;;;5014090;28;20249;-57
2022/12/20 14:17:25;;;;;;;22.73;3.47;;;;;;;;;;5013921;28;20652;-57
2022/12/20 14:20:03;;;;;;;33.80;4.10;;;12.00;99.90;;;;;;5013892;28;20208;-57